Weather at Elenak Airport

Public forecast

Using degrees Celsius for public forecast. Weather courtesy of forecast.io.

Closest aviation weather report (METAR) to Elenak Airport

Closest report is Bucholz Army Air Field, 63.6 nm (117.8 km) SE.

2024/05/26 11:00 (retrieved 12 minutes ago)

PKWA 261100Z COR 06014KT 10SM SCT017 SCT027 SCT034 29/25 A2988

Closest aviation forecast (TAF) to Elenak Airport

Closest forecast is Bucholz Army Air Field, 63.6 nm (117.8 km) SE.

2024/05/26 06:42 (retrieved 5 hours ago)

TAF PKWA 260538Z 2606/2706 07015KT P6SM VCSH SCT018 SCT050